sensor_id;sensor_type;location;lat;lon;timestamp;temperature;humidity
84176;DHT22;74306;40.114;18.304;2024-03-17T00:02:13;14.10;77.60
84176;DHT22;74306;40.114;18.304;2024-03-17T00:04:41;14.00;77.70
84176;DHT22;74306;40.114;18.304;2024-03-17T00:07:09;14.20;77.40
84176;DHT22;74306;40.114;18.304;2024-03-17T00:09:37;14.20;77.40
84176;DHT22;74306;40.114;18.304;2024-03-17T00:12:06;14.20;77.10
84176;DHT22;74306;40.114;18.304;2024-03-17T00:14:34;14.00;77.80
84176;DHT22;74306;40.114;18.304;2024-03-17T00:17:03;14.00;78.20
84176;DHT22;74306;40.114;18.304;2024-03-17T00:19:31;13.80;78.40
84176;DHT22;74306;40.114;18.304;2024-03-17T00:22:00;13.90;78.20
84176;DHT22;74306;40.114;18.304;2024-03-17T00:24:27;13.90;78.30
84176;DHT22;74306;40.114;18.304;2024-03-17T00:27:01;13.90;78.40
84176;DHT22;74306;40.114;18.304;2024-03-17T00:29:28;14.00;78.20
84176;DHT22;74306;40.114;18.304;2024-03-17T00:31:57;13.90;78.20
84176;DHT22;74306;40.114;18.304;2024-03-17T00:34:24;13.90;78.40
84176;DHT22;74306;40.114;18.304;2024-03-17T00:36:52;14.00;78.00
84176;DHT22;74306;40.114;18.304;2024-03-17T00:39:21;14.00;78.10
84176;DHT22;74306;40.114;18.304;2024-03-17T00:41:49;14.00;78.20
84176;DHT22;74306;40.114;18.304;2024-03-17T00:44:16;14.10;77.60
84176;DHT22;74306;40.114;18.304;2024-03-17T00:46:45;14.10;77.80
84176;DHT22;74306;40.114;18.304;2024-03-17T00:49:12;13.90;78.10
84176;DHT22;74306;40.114;18.304;2024-03-17T00:51:41;13.80;78.60
84176;DHT22;74306;40.114;18.304;2024-03-17T00:54:09;13.60;79.10
84176;DHT22;74306;40.114;18.304;2024-03-17T00:56:39;13.50;79.40
84176;DHT22;74306;40.114;18.304;2024-03-17T00:59:06;13.40;79.70
84176;DHT22;74306;40.114;18.304;2024-03-17T01:01:34;13.30;80.50
84176;DHT22;74306;40.114;18.304;2024-03-17T01:04:02;13.40;80.30
84176;DHT22;74306;40.114;18.304;2024-03-17T01:06:30;13.60;79.60
84176;DHT22;74306;40.114;18.304;2024-03-17T01:08:59;13.80;79.20
84176;DHT22;74306;40.114;18.304;2024-03-17T01:11:27;13.80;78.70
84176;DHT22;74306;40.114;18.304;2024-03-17T01:13:55;14.00;78.60
84176;DHT22;74306;40.114;18.304;2024-03-17T01:16:24;14.10;78.10
84176;DHT22;74306;40.114;18.304;2024-03-17T01:18:51;14.10;78.00
84176;DHT22;74306;40.114;18.304;2024-03-17T01:21:20;14.20;77.60
84176;DHT22;74306;40.114;18.304;2024-03-17T01:23:48;14.10;78.00
84176;DHT22;74306;40.114;18.304;2024-03-17T01:26:16;14.20;77.80
84176;DHT22;74306;40.114;18.304;2024-03-17T01:28:43;14.40;77.30
84176;DHT22;74306;40.114;18.304;2024-03-17T01:31:13;14.30;77.20
84176;DHT22;74306;40.114;18.304;2024-03-17T01:33:40;14.40;77.00
84176;DHT22;74306;40.114;18.304;2024-03-17T01:36:09;14.30;77.30
84176;DHT22;74306;40.114;18.304;2024-03-17T01:38:36;14.30;77.20
84176;DHT22;74306;40.114;18.304;2024-03-17T01:41:04;14.30;77.30
84176;DHT22;74306;40.114;18.304;2024-03-17T01:43:31;14.20;77.20
84176;DHT22;74306;40.114;18.304;2024-03-17T01:46:00;14.10;77.30
84176;DHT22;74306;40.114;18.304;2024-03-17T01:48:30;14.10;77.40
84176;DHT22;74306;40.114;18.304;2024-03-17T01:50:59;14.20;77.30
84176;DHT22;74306;40.114;18.304;2024-03-17T01:53:26;14.10;77.50
84176;DHT22;74306;40.114;18.304;2024-03-17T01:55:57;13.90;77.90
84176;DHT22;74306;40.114;18.304;2024-03-17T01:58:25;13.70;78.40
84176;DHT22;74306;40.114;18.304;2024-03-17T02:00:56;13.70;78.50
84176;DHT22;74306;40.114;18.304;2024-03-17T02:03:23;13.70;78.60
84176;DHT22;74306;40.114;18.304;2024-03-17T02:05:53;13.50;78.90
84176;DHT22;74306;40.114;18.304;2024-03-17T02:08:20;13.50;79.00
84176;DHT22;74306;40.114;18.304;2024-03-17T02:10:53;13.40;79.60
84176;DHT22;74306;40.114;18.304;2024-03-17T02:13:20;13.50;79.20
84176;DHT22;74306;40.114;18.304;2024-03-17T02:15:49;13.70;78.70
84176;DHT22;74306;40.114;18.304;2024-03-17T02:18:16;13.70;78.50
84176;DHT22;74306;40.114;18.304;2024-03-17T02:20:45;13.70;78.50
84176;DHT22;74306;40.114;18.304;2024-03-17T02:23:27;13.70;78.30
84176;DHT22;74306;40.114;18.304;2024-03-17T02:25:56;13.90;77.90
84176;DHT22;74306;40.114;18.304;2024-03-17T02:28:23;13.90;77.50
84176;DHT22;74306;40.114;18.304;2024-03-17T02:30:51;13.80;77.70
84176;DHT22;74306;40.114;18.304;2024-03-17T02:33:18;13.90;77.80
84176;DHT22;74306;40.114;18.304;2024-03-17T02:35:49;14.00;77.40
84176;DHT22;74306;40.114;18.304;2024-03-17T02:38:17;14.10;77.30
84176;DHT22;74306;40.114;18.304;2024-03-17T02:41:08;14.00;77.10
84176;DHT22;74306;40.114;18.304;2024-03-17T02:43:35;14.00;77.20
84176;DHT22;74306;40.114;18.304;2024-03-17T02:46:04;14.10;77.00
84176;DHT22;74306;40.114;18.304;2024-03-17T02:48:32;14.20;76.70
84176;DHT22;74306;40.114;18.304;2024-03-17T02:51:00;14.20;76.60
84176;DHT22;74306;40.114;18.304;2024-03-17T02:53:29;14.20;76.80
84176;DHT22;74306;40.114;18.304;2024-03-17T02:55:57;14.20;76.80
84176;DHT22;74306;40.114;18.304;2024-03-17T02:58:27;14.30;76.60
84176;DHT22;74306;40.114;18.304;2024-03-17T03:00:55;14.30;76.30
84176;DHT22;74306;40.114;18.304;2024-03-17T03:03:24;14.40;76.10
84176;DHT22;74306;40.114;18.304;2024-03-17T03:05:52;14.40;76.10
84176;DHT22;74306;40.114;18.304;2024-03-17T03:08:20;14.50;75.90
84176;DHT22;74306;40.114;18.304;2024-03-17T03:10:48;14.50;75.90
84176;DHT22;74306;40.114;18.304;2024-03-17T03:13:17;14.50;75.90
84176;DHT22;74306;40.114;18.304;2024-03-17T03:15:48;14.20;76.50
84176;DHT22;74306;40.114;18.304;2024-03-17T03:18:16;14.30;76.60
84176;DHT22;74306;40.114;18.304;2024-03-17T03:20:50;14.40;76.40
84176;DHT22;74306;40.114;18.304;2024-03-17T03:23:19;14.40;76.30
84176;DHT22;74306;40.114;18.304;2024-03-17T03:25:47;14.50;76.10
84176;DHT22;74306;40.114;18.304;2024-03-17T03:28:22;14.40;76.20
84176;DHT22;74306;40.114;18.304;2024-03-17T03:30:52;14.50;76.20
84176;DHT22;74306;40.114;18.304;2024-03-17T03:33:21;14.40;76.50
84176;DHT22;74306;40.114;18.304;2024-03-17T03:35:50;14.40;76.50
84176;DHT22;74306;40.114;18.304;2024-03-17T03:38:18;14.40;76.70
84176;DHT22;74306;40.114;18.304;2024-03-17T03:40:46;14.50;76.60
84176;DHT22;74306;40.114;18.304;2024-03-17T03:43:15;14.50;76.60
84176;DHT22;74306;40.114;18.304;2024-03-17T03:45:44;14.40;76.90
84176;DHT22;74306;40.114;18.304;2024-03-17T03:48:14;14.40;76.80
84176;DHT22;74306;40.114;18.304;2024-03-17T03:50:43;14.40;76.90
84176;DHT22;74306;40.114;18.304;2024-03-17T03:53:11;14.40;77.00
84176;DHT22;74306;40.114;18.304;2024-03-17T03:55:39;14.40;77.10
84176;DHT22;74306;40.114;18.304;2024-03-17T03:58:08;14.30;77.40
84176;DHT22;74306;40.114;18.304;2024-03-17T04:00:39;14.30;77.50
84176;DHT22;74306;40.114;18.304;2024-03-17T04:03:07;14.20;77.90
84176;DHT22;74306;40.114;18.304;2024-03-17T04:05:37;14.20;78.10
84176;DHT22;74306;40.114;18.304;2024-03-17T04:08:05;14.20;77.90
84176;DHT22;74306;40.114;18.304;2024-03-17T04:10:35;14.20;77.80
84176;DHT22;74306;40.114;18.304;2024-03-17T04:13:03;14.30;77.80
84176;DHT22;74306;40.114;18.304;2024-03-17T04:15:32;14.30;77.60
84176;DHT22;74306;40.114;18.304;2024-03-17T04:18:01;14.30;77.40
84176;DHT22;74306;40.114;18.304;2024-03-17T04:20:29;14.20;77.80
84176;DHT22;74306;40.114;18.304;2024-03-17T04:22:59;14.20;77.70
84176;DHT22;74306;40.114;18.304;2024-03-17T04:25:28;14.10;77.90
84176;DHT22;74306;40.114;18.304;2024-03-17T04:27:56;13.90;78.70
84176;DHT22;74306;40.114;18.304;2024-03-17T04:30:25;13.70;78.90
84176;DHT22;74306;40.114;18.304;2024-03-17T04:32:53;13.60;79.60
84176;DHT22;74306;40.114;18.304;2024-03-17T04:35:21;13.30;80.70
84176;DHT22;74306;40.114;18.304;2024-03-17T04:37:50;13.20;81.30
84176;DHT22;74306;40.114;18.304;2024-03-17T04:40:19;13.30;81.40
84176;DHT22;74306;40.114;18.304;2024-03-17T04:42:49;13.30;81.40
84176;DHT22;74306;40.114;18.304;2024-03-17T04:45:17;13.30;81.10
84176;DHT22;74306;40.114;18.304;2024-03-17T04:47:46;13.30;81.30
84176;DHT22;74306;40.114;18.304;2024-03-17T04:50:15;13.20;81.90
84176;DHT22;74306;40.114;18.304;2024-03-17T04:52:43;13.20;82.40
84176;DHT22;74306;40.114;18.304;2024-03-17T04:55:11;13.30;81.90
84176;DHT22;74306;40.114;18.304;2024-03-17T04:57:41;13.40;81.70
84176;DHT22;74306;40.114;18.304;2024-03-17T05:00:10;13.40;81.70
84176;DHT22;74306;40.114;18.304;2024-03-17T05:02:39;13.50;81.60
84176;DHT22;74306;40.114;18.304;2024-03-17T05:05:07;13.40;81.70
84176;DHT22;74306;40.114;18.304;2024-03-17T05:07:37;13.40;82.00
84176;DHT22;74306;40.114;18.304;2024-03-17T05:10:06;13.50;81.60
84176;DHT22;74306;40.114;18.304;2024-03-17T05:12:34;13.60;81.50
84176;DHT22;74306;40.114;18.304;2024-03-17T05:15:05;13.60;81.60
84176;DHT22;74306;40.114;18.304;2024-03-17T05:17:34;13.70;81.30
84176;DHT22;74306;40.114;18.304;2024-03-17T05:20:02;13.60;81.60
84176;DHT22;74306;40.114;18.304;2024-03-17T05:22:32;13.60;81.70
84176;DHT22;74306;40.114;18.304;2024-03-17T05:25:00;13.70;81.50
84176;DHT22;74306;40.114;18.304;2024-03-17T05:27:28;13.80;81.10
84176;DHT22;74306;40.114;18.304;2024-03-17T05:29:57;13.90;80.80
84176;DHT22;74306;40.114;18.304;2024-03-17T05:32:27;13.80;81.20
84176;DHT22;74306;40.114;18.304;2024-03-17T05:34:55;13.90;80.70
84176;DHT22;74306;40.114;18.304;2024-03-17T05:37:24;13.80;81.10
84176;DHT22;74306;40.114;18.304;2024-03-17T05:39:54;14.00;80.90
84176;DHT22;74306;40.114;18.304;2024-03-17T05:42:22;14.10;80.50
84176;DHT22;74306;40.114;18.304;2024-03-17T05:44:51;14.20;80.50
84176;DHT22;74306;40.114;18.304;2024-03-17T05:47:19;14.30;80.30
84176;DHT22;74306;40.114;18.304;2024-03-17T05:49:50;14.30;80.30
84176;DHT22;74306;40.114;18.304;2024-03-17T05:52:18;14.40;80.10
84176;DHT22;74306;40.114;18.304;2024-03-17T05:54:46;14.60;80.00
84176;DHT22;74306;40.114;18.304;2024-03-17T05:57:15;14.50;80.10
84176;DHT22;74306;40.114;18.304;2024-03-17T05:59:43;14.60;80.10
84176;DHT22;74306;40.114;18.304;2024-03-17T06:02:11;14.80;79.70
84176;DHT22;74306;40.114;18.304;2024-03-17T06:04:41;14.90;79.00
84176;DHT22;74306;40.114;18.304;2024-03-17T06:07:11;14.90;78.90
84176;DHT22;74306;40.114;18.304;2024-03-17T06:09:39;15.10;78.80
84176;DHT22;74306;40.114;18.304;2024-03-17T06:12:07;15.10;78.70
84176;DHT22;74306;40.114;18.304;2024-03-17T06:14:35;15.30;78.70
84176;DHT22;74306;40.114;18.304;2024-03-17T06:17:04;15.30;78.20
84176;DHT22;74306;40.114;18.304;2024-03-17T06:19:32;15.30;78.20
84176;DHT22;74306;40.114;18.304;2024-03-17T06:22:00;15.30;78.10
84176;DHT22;74306;40.114;18.304;2024-03-17T06:24:30;15.50;77.90
84176;DHT22;74306;40.114;18.304;2024-03-17T06:26:58;15.40;77.80
84176;DHT22;74306;40.114;18.304;2024-03-17T06:29:27;15.20;78.00
84176;DHT22;74306;40.114;18.304;2024-03-17T06:31:56;15.20;78.50
84176;DHT22;74306;40.114;18.304;2024-03-17T06:34:25;15.30;78.90
84176;DHT22;74306;40.114;18.304;2024-03-17T06:36:53;15.50;78.30
84176;DHT22;74306;40.114;18.304;2024-03-17T06:39:21;15.30;78.00
84176;DHT22;74306;40.114;18.304;2024-03-17T06:41:52;15.30;78.90
84176;DHT22;74306;40.114;18.304;2024-03-17T06:44:20;15.30;79.70
84176;DHT22;74306;40.114;18.304;2024-03-17T06:46:51;15.50;78.70
84176;DHT22;74306;40.114;18.304;2024-03-17T06:49:19;15.70;78.00
84176;DHT22;74306;40.114;18.304;2024-03-17T06:51:47;15.80;77.40
84176;DHT22;74306;40.114;18.304;2024-03-17T06:54:16;16.10;77.10
84176;DHT22;74306;40.114;18.304;2024-03-17T06:56:45;16.10;76.80
84176;DHT22;74306;40.114;18.304;2024-03-17T06:59:14;16.10;76.50
84176;DHT22;74306;40.114;18.304;2024-03-17T07:01:43;16.10;76.30
84176;DHT22;74306;40.114;18.304;2024-03-17T07:04:11;16.30;76.00
84176;DHT22;74306;40.114;18.304;2024-03-17T07:06:39;16.00;76.10
84176;DHT22;74306;40.114;18.304;2024-03-17T07:09:08;16.10;76.80
84176;DHT22;74306;40.114;18.304;2024-03-17T07:11:37;16.20;75.80
84176;DHT22;74306;40.114;18.304;2024-03-17T07:14:05;16.30;75.80
84176;DHT22;74306;40.114;18.304;2024-03-17T07:16:35;16.60;74.70
84176;DHT22;74306;40.114;18.304;2024-03-17T07:19:03;16.40;75.40
84176;DHT22;74306;40.114;18.304;2024-03-17T07:21:31;16.10;76.50
84176;DHT22;74306;40.114;18.304;2024-03-17T07:23:59;16.10;76.50
84176;DHT22;74306;40.114;18.304;2024-03-17T07:26:31;16.70;75.80
84176;DHT22;74306;40.114;18.304;2024-03-17T07:28:59;16.80;74.60
84176;DHT22;74306;40.114;18.304;2024-03-17T07:31:27;16.90;74.20
84176;DHT22;74306;40.114;18.304;2024-03-17T07:33:57;17.10;74.40
84176;DHT22;74306;40.114;18.304;2024-03-17T07:36:25;17.50;72.80
84176;DHT22;74306;40.114;18.304;2024-03-17T07:38:54;16.70;74.00
84176;DHT22;74306;40.114;18.304;2024-03-17T07:41:22;16.50;74.60
84176;DHT22;74306;40.114;18.304;2024-03-17T07:43:51;16.40;74.80
84176;DHT22;74306;40.114;18.304;2024-03-17T07:46:19;16.40;74.70
84176;DHT22;74306;40.114;18.304;2024-03-17T07:48:47;16.30;74.90
84176;DHT22;74306;40.114;18.304;2024-03-17T07:51:18;16.30;74.70
84176;DHT22;74306;40.114;18.304;2024-03-17T07:53:46;16.20;75.00
84176;DHT22;74306;40.114;18.304;2024-03-17T07:56:16;16.10;75.10
84176;DHT22;74306;40.114;18.304;2024-03-17T07:58:44;16.10;75.20
84176;DHT22;74306;40.114;18.304;2024-03-17T08:01:15;16.10;75.70
84176;DHT22;74306;40.114;18.304;2024-03-17T08:03:45;16.10;76.00
84176;DHT22;74306;40.114;18.304;2024-03-17T08:06:17;16.10;76.10
84176;DHT22;74306;40.114;18.304;2024-03-17T08:08:45;15.90;76.50
84176;DHT22;74306;40.114;18.304;2024-03-17T08:11:14;15.70;75.50
84176;DHT22;74306;40.114;18.304;2024-03-17T08:13:42;15.50;74.00
84176;DHT22;74306;40.114;18.304;2024-03-17T08:16:10;15.40;74.70
84176;DHT22;74306;40.114;18.304;2024-03-17T08:18:38;15.30;75.40
84176;DHT22;74306;40.114;18.304;2024-03-17T08:21:07;15.10;76.50
84176;DHT22;74306;40.114;18.304;2024-03-17T08:23:37;15.00;77.90
84176;DHT22;74306;40.114;18.304;2024-03-17T08:26:08;15.10;79.30
84176;DHT22;74306;40.114;18.304;2024-03-17T08:28:36;15.30;79.60
84176;DHT22;74306;40.114;18.304;2024-03-17T08:31:05;15.80;78.90
84176;DHT22;74306;40.114;18.304;2024-03-17T08:33:33;16.00;78.40
84176;DHT22;74306;40.114;18.304;2024-03-17T08:36:02;16.10;78.70
84176;DHT22;74306;40.114;18.304;2024-03-17T08:38:32;16.20;79.30
84176;DHT22;74306;40.114;18.304;2024-03-17T08:41:04;16.20;79.10
84176;DHT22;74306;40.114;18.304;2024-03-17T08:43:33;16.40;78.00
84176;DHT22;74306;40.114;18.304;2024-03-17T08:46:03;16.30;78.30
84176;DHT22;74306;40.114;18.304;2024-03-17T08:48:33;16.40;77.30
84176;DHT22;74306;40.114;18.304;2024-03-17T08:51:03;16.50;76.40
84176;DHT22;74306;40.114;18.304;2024-03-17T08:53:32;16.40;75.90
84176;DHT22;74306;40.114;18.304;2024-03-17T08:56:02;16.20;76.10
84176;DHT22;74306;40.114;18.304;2024-03-17T08:58:32;16.30;75.80
84176;DHT22;74306;40.114;18.304;2024-03-17T09:01:03;16.00;75.50
84176;DHT22;74306;40.114;18.304;2024-03-17T09:03:52;16.50;75.50
84176;DHT22;74306;40.114;18.304;2024-03-17T09:06:23;16.90;72.70
84176;DHT22;74306;40.114;18.304;2024-03-17T09:08:53;16.70;73.40
84176;DHT22;74306;40.114;18.304;2024-03-17T09:11:22;17.10;71.70
84176;DHT22;74306;40.114;18.304;2024-03-17T09:13:55;17.20;70.50
84176;DHT22;74306;40.114;18.304;2024-03-17T09:16:25;17.40;69.30
84176;DHT22;74306;40.114;18.304;2024-03-17T09:18:55;17.30;67.30
84176;DHT22;74306;40.114;18.304;2024-03-17T09:21:23;17.40;66.90
84176;DHT22;74306;40.114;18.304;2024-03-17T09:23:51;17.60;66.10
84176;DHT22;74306;40.114;18.304;2024-03-17T09:26:20;17.50;66.20
84176;DHT22;74306;40.114;18.304;2024-03-17T09:28:49;17.40;66.20
84176;DHT22;74306;40.114;18.304;2024-03-17T09:31:18;17.80;65.50
84176;DHT22;74306;40.114;18.304;2024-03-17T09:33:47;17.60;66.20
84176;DHT22;74306;40.114;18.304;2024-03-17T09:36:15;17.70;66.00
84176;DHT22;74306;40.114;18.304;2024-03-17T09:38:45;17.70;64.90
84176;DHT22;74306;40.114;18.304;2024-03-17T09:41:20;18.00;64.40
84176;DHT22;74306;40.114;18.304;2024-03-17T09:43:53;18.50;63.30
84176;DHT22;74306;40.114;18.304;2024-03-17T09:46:24;19.30;62.00
84176;DHT22;74306;40.114;18.304;2024-03-17T09:48:54;19.40;61.20
84176;DHT22;74306;40.114;18.304;2024-03-17T09:51:25;18.50;61.50
84176;DHT22;74306;40.114;18.304;2024-03-17T09:53:54;17.90;63.30
84176;DHT22;74306;40.114;18.304;2024-03-17T09:56:22;18.10;63.80
84176;DHT22;74306;40.114;18.304;2024-03-17T09:58:52;18.80;61.70
84176;DHT22;74306;40.114;18.304;2024-03-17T10:01:20;19.40;60.70
84176;DHT22;74306;40.114;18.304;2024-03-17T10:03:50;19.30;60.30
84176;DHT22;74306;40.114;18.304;2024-03-17T10:06:22;18.60;62.20
84176;DHT22;74306;40.114;18.304;2024-03-17T10:08:51;19.10;62.40
84176;DHT22;74306;40.114;18.304;2024-03-17T10:11:21;18.60;61.00
84176;DHT22;74306;40.114;18.304;2024-03-17T10:13:59;18.20;63.00
84176;DHT22;74306;40.114;18.304;2024-03-17T10:16:29;18.40;63.30
84176;DHT22;74306;40.114;18.304;2024-03-17T10:19:08;18.60;63.60
84176;DHT22;74306;40.114;18.304;2024-03-17T10:21:37;18.60;62.70
84176;DHT22;74306;40.114;18.304;2024-03-17T10:24:07;18.80;62.60
84176;DHT22;74306;40.114;18.304;2024-03-17T10:26:41;19.90;61.00
84176;DHT22;74306;40.114;18.304;2024-03-17T10:29:24;19.70;60.60
84176;DHT22;74306;40.114;18.304;2024-03-17T10:31:54;19.50;61.30
84176;DHT22;74306;40.114;18.304;2024-03-17T10:34:25;19.50;60.60
84176;DHT22;74306;40.114;18.304;2024-03-17T10:37:08;19.90;59.50
84176;DHT22;74306;40.114;18.304;2024-03-17T10:39:39;19.50;60.00
84176;DHT22;74306;40.114;18.304;2024-03-17T10:42:08;19.60;60.00
84176;DHT22;74306;40.114;18.304;2024-03-17T10:44:38;18.90;62.00
84176;DHT22;74306;40.114;18.304;2024-03-17T10:47:07;18.70;61.90
84176;DHT22;74306;40.114;18.304;2024-03-17T10:49:43;18.90;61.40
84176;DHT22;74306;40.114;18.304;2024-03-17T10:52:16;19.80;60.60
84176;DHT22;74306;40.114;18.304;2024-03-17T10:54:48;20.40;57.80
84176;DHT22;74306;40.114;18.304;2024-03-17T10:57:24;19.60;59.00
84176;DHT22;74306;40.114;18.304;2024-03-17T10:59:55;19.80;58.60
84176;DHT22;74306;40.114;18.304;2024-03-17T11:02:27;20.00;58.80
84176;DHT22;74306;40.114;18.304;2024-03-17T11:05:02;19.90;59.00
84176;DHT22;74306;40.114;18.304;2024-03-17T11:07:32;19.90;59.30
84176;DHT22;74306;40.114;18.304;2024-03-17T11:10:05;20.50;57.60
84176;DHT22;74306;40.114;18.304;2024-03-17T11:12:42;19.90;57.80
84176;DHT22;74306;40.114;18.304;2024-03-17T11:15:41;20.60;56.30
84176;DHT22;74306;40.114;18.304;2024-03-17T11:18:43;22.30;52.60
84176;DHT22;74306;40.114;18.304;2024-03-17T11:21:21;22.80;51.30
84176;DHT22;74306;40.114;18.304;2024-03-17T11:23:56;22.40;51.60
84176;DHT22;74306;40.114;18.304;2024-03-17T11:26:33;21.50;53.30
84176;DHT22;74306;40.114;18.304;2024-03-17T11:29:02;22.20;52.10
84176;DHT22;74306;40.114;18.304;2024-03-17T11:31:42;22.80;50.50
84176;DHT22;74306;40.114;18.304;2024-03-17T11:34:33;22.60;49.70
84176;DHT22;74306;40.114;18.304;2024-03-17T11:37:03;20.50;55.10
84176;DHT22;74306;40.114;18.304;2024-03-17T11:39:52;19.60;57.10
84176;DHT22;74306;40.114;18.304;2024-03-17T11:42:24;19.50;58.10
84176;DHT22;74306;40.114;18.304;2024-03-17T11:44:57;19.80;57.70
84176;DHT22;74306;40.114;18.304;2024-03-17T11:47:36;19.70;59.00
84176;DHT22;74306;40.114;18.304;2024-03-17T11:50:06;21.10;55.70
84176;DHT22;74306;40.114;18.304;2024-03-17T11:52:38;20.60;55.90
84176;DHT22;74306;40.114;18.304;2024-03-17T11:55:16;20.80;55.40
84176;DHT22;74306;40.114;18.304;2024-03-17T11:57:45;20.50;56.50
84176;DHT22;74306;40.114;18.304;2024-03-17T12:00:19;21.60;54.80
84176;DHT22;74306;40.114;18.304;2024-03-17T12:03:10;21.30;55.30
84176;DHT22;74306;40.114;18.304;2024-03-17T12:05:39;19.50;58.10
84176;DHT22;74306;40.114;18.304;2024-03-17T12:08:20;19.00;60.00
84176;DHT22;74306;40.114;18.304;2024-03-17T12:10:48;19.50;59.80
84176;DHT22;74306;40.114;18.304;2024-03-17T12:13:16;20.90;56.10
84176;DHT22;74306;40.114;18.304;2024-03-17T12:15:44;20.70;56.80
84176;DHT22;74306;40.114;18.304;2024-03-17T12:18:19;21.30;55.20
84176;DHT22;74306;40.114;18.304;2024-03-17T12:20:48;23.70;50.30
84176;DHT22;74306;40.114;18.304;2024-03-17T12:23:17;24.00;47.70
84176;DHT22;74306;40.114;18.304;2024-03-17T12:25:47;23.50;48.90
84176;DHT22;74306;40.114;18.304;2024-03-17T12:28:17;24.50;47.00
84176;DHT22;74306;40.114;18.304;2024-03-17T12:30:44;23.60;48.80
84176;DHT22;74306;40.114;18.304;2024-03-17T12:33:13;25.00;45.90
84176;DHT22;74306;40.114;18.304;2024-03-17T12:35:40;25.50;44.00
84176;DHT22;74306;40.114;18.304;2024-03-17T12:38:21;26.80;42.30
84176;DHT22;74306;40.114;18.304;2024-03-17T12:40:49;26.50;41.50
84176;DHT22;74306;40.114;18.304;2024-03-17T12:43:17;27.40;40.50
84176;DHT22;74306;40.114;18.304;2024-03-17T12:45:45;25.90;42.50
84176;DHT22;74306;40.114;18.304;2024-03-17T12:48:13;24.80;45.80
84176;DHT22;74306;40.114;18.304;2024-03-17T12:50:44;25.20;44.50
84176;DHT22;74306;40.114;18.304;2024-03-17T12:53:16;25.30;44.80
84176;DHT22;74306;40.114;18.304;2024-03-17T12:55:54;24.40;46.10
84176;DHT22;74306;40.114;18.304;2024-03-17T12:58:40;23.70;49.10
84176;DHT22;74306;40.114;18.304;2024-03-17T13:01:25;23.10;48.60
84176;DHT22;74306;40.114;18.304;2024-03-17T13:03:54;22.60;50.10
84176;DHT22;74306;40.114;18.304;2024-03-17T13:06:23;22.50;49.30
84176;DHT22;74306;40.114;18.304;2024-03-17T13:08:52;24.10;46.70
84176;DHT22;74306;40.114;18.304;2024-03-17T13:11:22;24.80;44.40
84176;DHT22;74306;40.114;18.304;2024-03-17T13:13:50;25.90;41.30
84176;DHT22;74306;40.114;18.304;2024-03-17T13:16:18;26.30;41.40
84176;DHT22;74306;40.114;18.304;2024-03-17T13:18:47;26.00;41.90
84176;DHT22;74306;40.114;18.304;2024-03-17T13:21:15;25.50;42.40
84176;DHT22;74306;40.114;18.304;2024-03-17T13:23:43;25.80;41.70
84176;DHT22;74306;40.114;18.304;2024-03-17T13:26:11;26.70;40.40
84176;DHT22;74306;40.114;18.304;2024-03-17T13:28:41;25.70;42.10
84176;DHT22;74306;40.114;18.304;2024-03-17T13:31:10;26.00;41.50
84176;DHT22;74306;40.114;18.304;2024-03-17T13:33:39;26.80;40.30
84176;DHT22;74306;40.114;18.304;2024-03-17T13:36:08;26.80;38.80
84176;DHT22;74306;40.114;18.304;2024-03-17T13:38:36;26.80;39.40
84176;DHT22;74306;40.114;18.304;2024-03-17T13:41:06;25.70;41.20
84176;DHT22;74306;40.114;18.304;2024-03-17T13:43:34;25.10;42.30
84176;DHT22;74306;40.114;18.304;2024-03-17T13:46:04;24.10;45.00
84176;DHT22;74306;40.114;18.304;2024-03-17T13:48:32;23.10;47.60
84176;DHT22;74306;40.114;18.304;2024-03-17T13:51:03;21.70;48.20
84176;DHT22;74306;40.114;18.304;2024-03-17T13:53:32;21.80;49.40
84176;DHT22;74306;40.114;18.304;2024-03-17T13:56:00;21.70;49.30
84176;DHT22;74306;40.114;18.304;2024-03-17T13:58:28;21.40;51.20
84176;DHT22;74306;40.114;18.304;2024-03-17T14:00:57;20.70;53.20
84176;DHT22;74306;40.114;18.304;2024-03-17T14:03:26;21.10;53.20
84176;DHT22;74306;40.114;18.304;2024-03-17T14:05:56;21.00;53.80
84176;DHT22;74306;40.114;18.304;2024-03-17T14:08:25;21.00;53.60
84176;DHT22;74306;40.114;18.304;2024-03-17T14:10:53;21.40;53.00
84176;DHT22;74306;40.114;18.304;2024-03-17T14:13:22;20.60;54.40
84176;DHT22;74306;40.114;18.304;2024-03-17T14:15:50;20.30;55.40
84176;DHT22;74306;40.114;18.304;2024-03-17T14:18:18;20.20;56.70
84176;DHT22;74306;40.114;18.304;2024-03-17T14:20:48;20.40;56.30
84176;DHT22;74306;40.114;18.304;2024-03-17T14:23:17;20.10;56.20
84176;DHT22;74306;40.114;18.304;2024-03-17T14:25:45;20.10;56.90
84176;DHT22;74306;40.114;18.304;2024-03-17T14:28:13;20.20;57.40
84176;DHT22;74306;40.114;18.304;2024-03-17T14:30:41;20.30;55.90
84176;DHT22;74306;40.114;18.304;2024-03-17T14:33:10;20.40;55.30
84176;DHT22;74306;40.114;18.304;2024-03-17T14:35:39;20.50;54.80
84176;DHT22;74306;40.114;18.304;2024-03-17T14:38:09;20.40;54.20
84176;DHT22;74306;40.114;18.304;2024-03-17T14:40:38;20.80;53.60
84176;DHT22;74306;40.114;18.304;2024-03-17T14:43:06;20.30;54.50
84176;DHT22;74306;40.114;18.304;2024-03-17T14:45:34;20.10;55.20
84176;DHT22;74306;40.114;18.304;2024-03-17T14:48:02;20.10;55.90
84176;DHT22;74306;40.114;18.304;2024-03-17T14:50:31;20.10;56.20
84176;DHT22;74306;40.114;18.304;2024-03-17T14:52:59;20.20;56.60
84176;DHT22;74306;40.114;18.304;2024-03-17T14:55:29;20.20;56.60
84176;DHT22;74306;40.114;18.304;2024-03-17T14:57:57;19.60;58.80
84176;DHT22;74306;40.114;18.304;2024-03-17T15:00:25;19.80;58.40
84176;DHT22;74306;40.114;18.304;2024-03-17T15:02:53;20.10;57.20
84176;DHT22;74306;40.114;18.304;2024-03-17T15:05:22;19.70;58.80
84176;DHT22;74306;40.114;18.304;2024-03-17T15:07:50;20.20;58.10
84176;DHT22;74306;40.114;18.304;2024-03-17T15:10:19;20.30;57.20
84176;DHT22;74306;40.114;18.304;2024-03-17T15:12:50;20.20;57.10
84176;DHT22;74306;40.114;18.304;2024-03-17T15:15:18;19.60;58.40
84176;DHT22;74306;40.114;18.304;2024-03-17T15:17:47;19.40;60.30
84176;DHT22;74306;40.114;18.304;2024-03-17T15:20:17;19.90;59.40
84176;DHT22;74306;40.114;18.304;2024-03-17T15:22:49;20.10;58.80
84176;DHT22;74306;40.114;18.304;2024-03-17T15:25:18;19.80;59.10
84176;DHT22;74306;40.114;18.304;2024-03-17T15:27:50;19.80;59.80
84176;DHT22;74306;40.114;18.304;2024-03-17T15:30:18;19.50;60.30
84176;DHT22;74306;40.114;18.304;2024-03-17T15:32:49;19.60;60.70